Time;durP1;ratioP1;P1;durP2;ratioP2;P2;SDS_P1;SDS_P2;PMS_P1;PMS_P2;Temp;Humidity;BMP_temperature;BMP_pressure;BME280_temperature;BME280_humidity;BME280_pressure;Samples;Min_cycle;Max_cycle;Signal;HPM_P1;HPM_P2
2021/06/21 00:00:12;;;;;;;4.25;1.50;;;14.70;81.70;;;;;;5005354;28;20069;-64
2021/06/21 00:02:39;;;;;;;3.63;1.17;;;14.70;81.40;;;;;;5004203;28;20184;-66
2021/06/21 00:05:11;;;;;;;2.72;1.92;;;14.60;82.00;;;;;;5006029;28;20072;-71
2021/06/21 00:07:38;;;;;;;2.00;0.82;;;14.70;82.60;;;;;;5006906;28;20076;-68
2021/06/21 00:10:06;;;;;;;2.70;1.15;;;14.70;81.30;;;;;;4986882;28;20085;-68
2021/06/21 00:12:34;;;;;;;2.45;1.00;;;14.70;81.70;;;;;;5003572;28;20032;-65
2021/06/21 00:15:01;;;;;;;2.25;1.13;;;14.70;81.10;;;;;;5004179;28;20397;-64
2021/06/21 00:17:28;;;;;;;5.45;3.42;;;14.90;82.30;;;;;;4999587;28;20033;-70
2021/06/21 00:19:55;;;;;;;6.93;3.25;;;15.10;81.40;;;;;;4995091;28;20023;-68
2021/06/21 00:22:22;;;;;;;4.93;1.20;;;15.20;81.20;;;;;;5003440;28;20512;-71
2021/06/21 00:24:49;;;;;;;3.60;1.05;;;15.30;79.60;;;;;;5006284;28;20037;-68
2021/06/21 00:27:16;;;;;;;2.08;1.05;;;15.30;79.70;;;;;;4999110;28;20070;-70
2021/06/21 00:29:43;;;;;;;4.05;1.00;;;15.40;80.10;;;;;;4976712;28;20050;-65
2021/06/21 00:32:10;;;;;;;3.85;0.82;;;15.30;79.60;;;;;;5004913;28;20038;-65
2021/06/21 00:34:37;;;;;;;1.58;0.93;;;15.30;79.80;;;;;;5004648;28;20052;-67
2021/06/21 00:37:04;;;;;;;2.17;0.68;;;15.20;79.00;;;;;;4977269;28;20085;-70
2021/06/21 00:39:31;;;;;;;2.63;0.70;;;15.10;80.50;;;;;;4999860;28;20041;-67
2021/06/21 00:41:58;;;;;;;4.53;0.80;;;15.20;79.60;;;;;;5004501;28;20101;-65
2021/06/21 00:44:25;;;;;;;1.58;0.80;;;15.20;78.70;;;;;;5003226;28;20018;-64
2021/06/21 00:46:53;;;;;;;4.07;0.82;;;15.10;78.50;;;;;;4995611;28;20069;-70
2021/06/21 00:49:21;;;;;;;2.75;0.73;;;15.20;79.40;;;;;;4991375;28;20045;-64
2021/06/21 00:51:48;;;;;;;3.65;1.10;;;15.20;79.40;;;;;;5006803;28;20032;-70
2021/06/21 00:54:15;;;;;;;5.30;1.45;;;15.30;78.50;;;;;;4999254;28;20200;-69
2021/06/21 00:56:42;;;;;;;3.13;0.95;;;15.20;78.70;;;;;;4994424;28;20023;-64
2021/06/21 00:59:09;;;;;;;2.85;0.80;;;15.40;77.90;;;;;;4986482;28;20519;-70
2021/06/21 01:01:36;;;;;;;5.75;1.20;;;15.50;77.10;;;;;;5012684;28;20056;-64
2021/06/21 01:04:03;;;;;;;4.00;0.75;;;15.50;78.20;;;;;;5017168;28;20018;-68
2021/06/21 01:06:31;;;;;;;2.78;1.15;;;15.70;78.50;;;;;;5021324;28;20026;-71
2021/06/21 01:08:58;;;;;;;4.43;1.35;;;15.70;76.50;;;;;;5016943;28;20061;-64
2021/06/21 01:11:58;;;;;;;1.80;0.80;;;15.70;77.40;;;;;;5022486;28;20025;-70
2021/06/21 01:14:42;;;;;;;7.13;1.17;;;15.90;77.80;;;;;;5020497;28;20028;-70
2021/06/21 01:17:38;;;;;;;3.13;0.80;;;16.00;76.60;;;;;;5017897;28;20081;-64
2021/06/21 01:20:42;;;;;;;3.20;1.33;;;16.00;76.90;;;;;;4991019;28;20042;-68
2021/06/21 01:23:26;;;;;;;;;;;16.20;76.70;;;;;;5022203;28;20507;-64
2021/06/21 01:26:14;;;;;;;6.35;1.27;;;16.20;76.10;;;;;;5020254;28;19960;-63
2021/06/21 01:29:21;;;;;;;5.38;1.08;;;16.10;75.50;;;;;;5017120;28;20574;-64
2021/06/21 01:32:14;;;;;;;3.78;1.15;;;16.30;76.10;;;;;;5020397;28;20028;-69
2021/06/21 01:35:02;;;;;;;5.93;1.10;;;16.40;74.90;;;;;;4998020;28;20038;-70
2021/06/21 01:37:30;;;;;;;6.75;1.02;;;16.40;74.90;;;;;;5016716;28;20029;-65
2021/06/21 01:39:58;;;;;;;4.03;0.98;;;16.50;73.60;;;;;;5000149;28;20065;-64
2021/06/21 01:42:26;;;;;;;3.55;0.77;;;16.60;73.60;;;;;;5021173;28;20073;-63
2021/06/21 01:45:07;;;;;;;3.15;0.95;;;16.70;74.30;;;;;;5020850;28;20042;-63
2021/06/21 01:47:35;;;;;;;5.80;0.98;;;16.80;71.80;;;;;;5020330;28;20033;-62
2021/06/21 01:50:06;;;;;;;2.08;0.82;;;16.80;72.80;;;;;;5018438;28;20121;-69
2021/06/21 01:52:38;;;;;;;2.47;1.00;;;16.80;71.60;;;;;;5021167;28;20013;-69
2021/06/21 01:55:06;;;;;;;;;;;16.90;72.30;;;;;;5022090;28;20022;-68
2021/06/21 01:57:35;;;;;;;3.05;0.80;;;16.80;72.80;;;;;;5021188;28;19913;-63
2021/06/21 02:00:08;;;;;;;2.97;1.05;;;16.80;71.90;;;;;;5018238;28;20041;-62
2021/06/21 02:02:37;;;;;;;3.35;1.35;;;16.60;73.60;;;;;;5018784;28;20496;-68
2021/06/21 02:05:07;;;;;;;3.45;0.90;;;16.60;74.00;;;;;;5018882;28;20025;-70
2021/06/21 02:07:35;;;;;;;2.40;0.93;;;16.70;73.00;;;;;;5020240;28;20018;-63
2021/06/21 02:10:04;;;;;;;3.20;1.00;;;16.70;72.00;;;;;;5018488;28;20025;-70
2021/06/21 02:12:33;;;;;;;1.67;0.90;;;16.70;72.70;;;;;;5020290;28;20036;-67
2021/06/21 02:15:01;;;;;;;2.92;0.85;;;16.70;72.80;;;;;;5019459;28;20084;-62
2021/06/21 02:17:30;;;;;;;2.83;1.25;;;16.80;73.50;;;;;;5020063;28;20031;-68
2021/06/21 02:19:58;;;;;;;2.17;1.00;;;16.90;73.10;;;;;;5016289;28;20041;-67
2021/06/21 02:22:28;;;;;;;2.47;1.27;;;16.80;72.40;;;;;;5019892;28;20034;-69
2021/06/21 02:24:58;;;;;;;3.97;1.17;;;16.80;74.30;;;;;;5022442;28;20078;-69
2021/06/21 02:27:25;;;;;;;3.10;1.10;;;16.90;73.90;;;;;;5019711;28;20372;-63
2021/06/21 02:29:56;;;;;;;3.25;0.98;;;16.90;72.40;;;;;;5018521;28;20394;-68
2021/06/21 02:32:24;;;;;;;4.07;1.10;;;17.00;74.20;;;;;;5019072;28;20027;-62
2021/06/21 02:34:52;;;;;;;1.65;0.65;;;17.20;74.00;;;;;;5020681;28;20045;-69
2021/06/21 02:37:19;;;;;;;2.63;0.88;;;17.20;72.50;;;;;;5018116;28;20345;-69
2021/06/21 02:39:47;;;;;;;4.72;1.17;;;17.00;71.90;;;;;;5017501;28;20021;-62
2021/06/21 02:42:14;;;;;;;5.90;1.08;;;17.00;73.00;;;;;;5018994;28;20026;-69
2021/06/21 02:44:41;;;;;;;4.43;0.80;;;17.00;72.40;;;;;;5018702;28;20018;-69
2021/06/21 02:47:08;;;;;;;2.72;0.75;;;17.00;70.80;;;;;;5017692;28;20022;-69
2021/06/21 02:49:35;;;;;;;3.53;1.20;;;17.10;72.00;;;;;;5017975;28;20578;-64
2021/06/21 02:52:22;;;;;;;1.77;0.55;;;17.10;70.50;;;;;;5020929;28;20488;-68
2021/06/21 02:55:22;;;;;;;4.57;1.25;;;17.20;70.70;;;;;;5019424;28;20360;-62
2021/06/21 02:58:09;;;;;;;2.70;0.80;;;17.20;70.70;;;;;;5017777;28;20017;-64
2021/06/21 03:00:39;;;;;;;4.07;1.00;;;17.10;70.80;;;;;;5011399;28;20067;-68
2021/06/21 03:03:09;;;;;;;4.97;1.17;;;17.40;70.40;;;;;;5012739;28;20079;-65
2021/06/21 03:05:46;;;;;;;2.10;1.40;;;17.80;69.00;;;;;;5011159;28;20029;-63
2021/06/21 03:08:14;;;;;;;1.88;0.85;;;17.90;69.10;;;;;;5016197;28;20202;-63
2021/06/21 03:10:41;;;;;;;3.55;1.25;;;17.90;69.80;;;;;;5014716;28;20029;-65
2021/06/21 03:13:10;;;;;;;3.35;1.23;;;18.00;68.90;;;;;;5014457;28;20464;-65
2021/06/21 03:15:37;;;;;;;3.78;1.08;;;17.90;69.80;;;;;;5017777;28;20029;-66
2021/06/21 03:18:05;;;;;;;7.25;1.50;;;17.70;69.50;;;;;;5016560;28;20029;-69
2021/06/21 03:20:33;;;;;;;4.63;1.30;;;17.70;70.60;;;;;;5014713;28;20030;-69
2021/06/21 03:23:01;;;;;;;4.75;1.20;;;17.60;70.40;;;;;;5011972;28;20217;-65
2021/06/21 03:25:29;;;;;;;5.78;1.33;;;17.80;69.10;;;;;;5017644;28;20053;-63
2021/06/21 03:27:58;;;;;;;2.38;1.10;;;17.90;69.50;;;;;;5016470;28;20045;-61
2021/06/21 03:30:26;;;;;;;4.07;1.13;;;18.00;68.20;;;;;;5015645;28;20029;-63
2021/06/21 03:32:53;;;;;;;3.17;1.23;;;18.20;68.40;;;;;;5016741;28;20026;-68
2021/06/21 03:35:21;;;;;;;4.05;2.38;;;18.10;68.50;;;;;;5016259;28;20064;-65
2021/06/21 03:37:49;;;;;;;3.33;2.10;;;17.90;69.30;;;;;;5016751;28;20033;-65
2021/06/21 03:40:16;;;;;;;9.32;5.25;;;17.80;68.90;;;;;;5018717;28;20499;-66
2021/06/21 03:42:43;;;;;;;4.63;1.08;;;17.70;69.80;;;;;;5015344;28;20045;-68
2021/06/21 03:45:14;;;;;;;4.05;1.77;;;17.40;70.20;;;;;;5011030;28;20507;-64
2021/06/21 03:47:42;;;;;;;7.32;1.23;;;17.10;70.50;;;;;;5012880;28;20021;-65
2021/06/21 03:50:10;;;;;;;5.57;1.65;;;16.90;71.50;;;;;;5018288;28;20063;-68
2021/06/21 03:52:37;;;;;;;2.45;0.80;;;16.80;70.80;;;;;;5017965;28;20048;-65
2021/06/21 03:55:09;;;;;;;2.63;1.25;;;16.70;71.00;;;;;;5014561;28;20572;-66
2021/06/21 03:57:42;;;;;;;5.20;1.20;;;16.50;71.40;;;;;;5017638;28;20022;-69
2021/06/21 04:00:16;;;;;;;3.65;1.23;;;16.30;73.00;;;;;;5017731;28;20026;-67
2021/06/21 04:02:43;;;;;;;6.30;1.30;;;16.00;73.70;;;;;;5014762;28;20045;-65
2021/06/21 04:05:11;;;;;;;4.55;1.20;;;15.90;75.90;;;;;;5018110;28;20045;-70
2021/06/21 04:07:38;;;;;;;6.68;1.60;;;15.70;78.20;;;;;;5015535;28;20079;-74
2021/06/21 04:10:11;;;;;;;3.38;0.90;;;15.40;80.90;;;;;;5015865;28;20061;-73
2021/06/21 04:12:39;;;;;;;4.15;1.50;;;15.30;83.50;;;;;;5017971;28;20258;-73
2021/06/21 04:15:11;;;;;;;3.97;1.10;;;15.10;86.60;;;;;;4997707;28;20033;-69
2021/06/21 04:17:39;;;;;;;8.90;1.77;;;15.10;89.00;;;;;;5014483;28;20022;-72
2021/06/21 04:20:08;;;;;;;5.50;1.60;;;15.00;87.70;;;;;;5016830;28;20573;-69
2021/06/21 04:22:36;;;;;;;3.92;1.27;;;14.90;89.30;;;;;;5001539;28;20036;-71
2021/06/21 04:25:05;;;;;;;5.15;1.92;;;14.80;90.00;;;;;;5014006;28;20022;-71
2021/06/21 04:27:32;;;;;;;6.22;1.20;;;14.70;90.20;;;;;;5014798;28;20014;-68
2021/06/21 04:29:59;;;;;;;4.68;3.28;;;14.60;90.00;;;;;;5019177;28;20109;-71
2021/06/21 04:32:26;;;;;;;4.50;1.75;;;14.50;89.70;;;;;;5020487;28;20069;-71
2021/06/21 04:34:54;;;;;;;7.45;2.25;;;14.60;90.00;;;;;;5017622;28;20050;-70
2021/06/21 04:37:21;;;;;;;6.18;3.20;;;14.60;90.20;;;;;;5016202;28;20489;-71
2021/06/21 04:39:48;;;;;;;7.30;1.80;;;14.60;90.10;;;;;;5020409;28;20021;-71
2021/06/21 04:42:15;;;;;;;4.57;1.60;;;14.70;90.60;;;;;;5002718;28;20025;-71
2021/06/21 04:44:41;;;;;;;3.90;1.80;;;14.80;90.80;;;;;;5017684;28;20010;-70
2021/06/21 04:47:08;;;;;;;4.95;1.50;;;14.90;90.30;;;;;;5017971;28;20022;-68
2021/06/21 04:49:36;;;;;;;6.30;2.45;;;14.90;90.20;;;;;;5020400;28;20044;-70
2021/06/21 04:52:06;;;;;;;5.20;1.50;;;15.00;88.80;;;;;;5020957;28;20033;-67
2021/06/21 04:54:33;;;;;;;4.80;1.60;;;15.10;87.90;;;;;;5016962;28;20112;-70
2021/06/21 04:57:00;;;;;;;4.40;1.65;;;15.20;89.00;;;;;;5017580;28;20026;-68
2021/06/21 04:59:27;;;;;;;4.38;1.65;;;15.20;86.00;;;;;;5018571;28;20026;-71
2021/06/21 05:01:54;;;;;;;5.20;1.73;;;15.20;85.00;;;;;;5020726;28;20032;-69
2021/06/21 05:04:21;;;;;;;3.47;1.70;;;15.20;86.60;;;;;;4319895;28;10000459;-68
2021/06/21 05:06:47;;;;;;;3.35;1.45;;;15.10;87.20;;;;;;5008914;28;20036;-68
2021/06/21 05:09:14;;;;;;;7.13;1.73;;;15.10;88.10;;;;;;5008045;28;20062;-71
2021/06/21 05:11:41;;;;;;;6.13;1.65;;;15.00;88.60;;;;;;5008451;28;20029;-68
2021/06/21 05:14:08;;;;;;;2.30;1.52;;;14.90;87.90;;;;;;5008957;28;20037;-68
2021/06/21 05:16:35;;;;;;;11.20;5.93;;;14.90;86.90;;;;;;5014290;28;20030;-70
2021/06/21 05:19:02;;;;;;;7.00;1.83;;;14.80;88.30;;;;;;4990895;28;20389;-68
2021/06/21 05:21:31;;;;;;;6.05;2.25;;;14.70;88.90;;;;;;5008310;28;20026;-67
2021/06/21 05:23:58;;;;;;;10.77;4.18;;;14.70;90.00;;;;;;4990622;28;20689;-67
2021/06/21 05:26:25;;;;;;;5.53;2.00;;;14.70;90.30;;;;;;5007420;28;20044;-67
2021/06/21 05:28:52;;;;;;;4.68;1.85;;;15.10;89.70;;;;;;5000579;28;20040;-72
2021/06/21 05:31:19;;;;;;;5.50;1.70;;;15.30;87.80;;;;;;5002019;28;20432;-70
2021/06/21 05:33:47;;;;;;;6.03;1.73;;;15.50;84.20;;;;;;4990227;28;20126;-71
2021/06/21 05:36:14;;;;;;;5.68;1.58;;;16.00;83.70;;;;;;5008403;28;20089;-66
2021/06/21 05:38:41;;;;;;;7.80;2.08;;;16.40;80.90;;;;;;5008361;28;20029;-66
2021/06/21 05:41:08;;;;;;;3.92;1.25;;;16.30;79.20;;;;;;5006543;28;20014;-73
2021/06/21 05:43:35;;;;;;;6.07;1.42;;;16.10;80.60;;;;;;5007783;28;20104;-70
2021/06/21 05:46:02;;;;;;;5.45;1.45;;;16.00;81.40;;;;;;5004312;28;20030;-67
2021/06/21 05:48:29;;;;;;;3.13;1.15;;;16.00;81.90;;;;;;5007733;28;20049;-71
2021/06/21 05:51:00;;;;;;;4.80;2.05;;;15.90;78.20;;;;;;5001075;28;20017;-70
2021/06/21 05:53:29;;;;;;;8.60;2.08;;;16.00;80.60;;;;;;4984374;28;20463;-67
2021/06/21 05:55:59;;;;;;;4.28;1.73;;;15.90;81.90;;;;;;5003574;28;20022;-67
2021/06/21 05:58:26;;;;;;;9.25;2.00;;;15.60;83.30;;;;;;5006914;28;20026;-68
2021/06/21 06:00:53;;;;;;;6.97;2.28;;;15.50;84.60;;;;;;5007697;28;20021;-71
2021/06/21 06:03:20;;;;;;;4.47;1.77;;;15.40;85.70;;;;;;5004630;28;20014;-67
2021/06/21 06:05:47;;;;;;;4.63;1.83;;;15.30;85.80;;;;;;5004223;28;20034;-68
2021/06/21 06:08:15;;;;;;;4.75;1.88;;;15.20;86.50;;;;;;5005189;28;20469;-70
2021/06/21 06:10:42;;;;;;;3.13;1.33;;;15.00;87.60;;;;;;5005733;28;20029;-71
2021/06/21 06:13:09;;;;;;;5.85;1.63;;;14.90;88.70;;;;;;5005385;28;20112;-67
2021/06/21 06:15:36;;;;;;;3.53;1.27;;;14.80;88.20;;;;;;5005036;28;20021;-69
2021/06/21 06:18:03;;;;;;;3.35;1.70;;;14.70;89.10;;;;;;5005690;28;20029;-67
2021/06/21 06:20:30;;;;;;;3.80;2.13;;;14.60;89.20;;;;;;5007072;28;20030;-71
2021/06/21 06:22:58;;;;;;;4.20;1.30;;;14.60;89.50;;;;;;5005426;28;20381;-69
2021/06/21 06:25:25;;;;;;;2.72;1.15;;;14.50;89.90;;;;;;5006050;28;20161;-67
2021/06/21 06:27:54;;;;;;;3.70;1.60;;;14.40;90.10;;;;;;5003798;28;20022;-69
2021/06/21 06:30:21;;;;;;;4.40;1.75;;;14.40;90.40;;;;;;5004485;28;20054;-70
2021/06/21 06:32:48;;;;;;;5.45;1.98;;;14.20;90.60;;;;;;5001429;28;20025;-65
2021/06/21 06:35:16;;;;;;;9.30;1.55;;;14.10;90.80;;;;;;5010511;28;20025;-65
2021/06/21 06:37:44;;;;;;;4.18;1.35;;;14.10;90.50;;;;;;5005618;28;20034;-63
2021/06/21 06:40:12;;;;;;;2.92;1.20;;;14.00;90.50;;;;;;5003749;28;20022;-64
2021/06/21 06:42:39;;;;;;;7.05;1.63;;;13.90;90.90;;;;;;5004854;28;20022;-68
2021/06/21 06:45:06;;;;;;;4.63;1.25;;;13.70;90.90;;;;;;5007055;28;20136;-67
2021/06/21 06:47:34;;;;;;;2.72;1.02;;;13.70;90.80;;;;;;5006116;28;20431;-70
2021/06/21 06:50:02;;;;;;;23.08;14.55;;;13.60;91.00;;;;;;5011059;28;20099;-67
2021/06/21 06:52:29;;;;;;;3.65;1.48;;;13.50;91.00;;;;;;5006611;28;20064;-68
2021/06/21 06:57:43;;;;;;;4.10;1.70;;;13.30;91.50;;;;;;5003690;28;20518;-65
2021/06/21 07:00:12;;;;;;;6.53;1.70;;;13.20;91.50;;;;;;5006148;28;20594;-64
2021/06/21 07:02:43;;;;;;;3.13;1.13;;;13.10;91.90;;;;;;5006678;28;20121;-68
2021/06/21 07:05:11;;;;;;;1.65;1.23;;;13.00;92.30;;;;;;5006293;28;20025;-64
2021/06/21 07:07:38;;;;;;;4.25;1.65;;;12.90;92.60;;;;;;5006115;28;20026;-64
2021/06/21 07:10:06;;;;;;;3.85;1.25;;;12.80;93.10;;;;;;5011787;28;20056;-66
2021/06/21 07:12:33;;;;;;;6.03;3.00;;;12.80;92.90;;;;;;5012097;28;20037;-68
2021/06/21 07:15:00;;;;;;;5.22;2.78;;;12.70;93.20;;;;;;5013285;28;20033;-68
2021/06/21 07:17:27;;;;;;;7.47;2.60;;;12.60;93.50;;;;;;5015281;28;20395;-66
2021/06/21 07:19:54;;;;;;;6.65;1.98;;;12.60;93.70;;;;;;5014862;28;20106;-63
2021/06/21 07:22:21;;;;;;;6.03;1.83;;;12.60;93.90;;;;;;5013285;28;20446;-67
2021/06/21 07:24:48;;;;;;;6.03;2.95;;;12.60;93.60;;;;;;5014069;28;20340;-62
2021/06/21 07:27:15;;;;;;;6.80;2.50;;;12.60;93.80;;;;;;5014543;28;20021;-69
2021/06/21 07:29:42;;;;;;;5.82;1.90;;;12.50;94.10;;;;;;5008331;28;20057;-66
2021/06/21 07:32:09;;;;;;;6.47;2.50;;;12.50;93.70;;;;;;5012832;28;20141;-67
2021/06/21 07:34:38;;;;;;;6.28;2.60;;;12.60;94.80;;;;;;5010045;28;20036;-67
2021/06/21 07:37:05;;;;;;;10.63;2.60;;;12.60;94.40;;;;;;4995802;28;20033;-67
2021/06/21 07:39:32;;;;;;;3.67;1.70;;;12.60;94.60;;;;;;5012280;28;20879;-64
2021/06/21 07:41:59;;;;;;;5.78;2.05;;;12.60;94.50;;;;;;5016026;28;20036;-64
2021/06/21 07:44:26;;;;;;;5.68;2.17;;;12.60;94.20;;;;;;5009913;28;20026;-64
2021/06/21 07:46:53;;;;;;;4.50;2.38;;;12.60;94.30;;;;;;5011655;28;20029;-66
2021/06/21 07:49:20;;;;;;;4.32;2.15;;;12.70;94.60;;;;;;5013014;28;20417;-68
2021/06/21 07:51:47;;;;;;;5.07;1.85;;;12.60;94.30;;;;;;5008273;28;20075;-67
2021/06/21 07:54:14;;;;;;;4.43;1.70;;;12.50;94.20;;;;;;5013120;28;20666;-71
2021/06/21 07:56:41;;;;;;;3.97;1.60;;;12.50;94.70;;;;;;5013881;28;20037;-68
2021/06/21 07:59:08;;;;;;;6.00;1.95;;;12.50;95.00;;;;;;5014383;28;20117;-64
2021/06/21 08:01:35;;;;;;;7.10;2.28;;;12.40;95.20;;;;;;5010052;28;20121;-63
2021/06/21 08:04:02;;;;;;;3.58;1.45;;;12.60;97.20;;;;;;5009170;28;20053;-67
2021/06/21 08:06:29;;;;;;;6.45;2.05;;;12.90;96.00;;;;;;5016522;28;20750;-72
2021/06/21 08:08:56;;;;;;;6.68;2.45;;;13.10;96.10;;;;;;5012182;28;20026;-62
2021/06/21 08:11:23;;;;;;;10.27;5.75;;;13.10;96.20;;;;;;5018164;28;20511;-65
2021/06/21 08:13:50;;;;;;;13.05;6.53;;;13.00;94.60;;;;;;5014462;28;20033;-62
2021/06/21 08:16:17;;;;;;;19.50;12.63;;;13.00;95.80;;;;;;4989853;28;20112;-62
2021/06/21 08:18:44;;;;;;;11.48;5.95;;;13.10;95.00;;;;;;5015110;28;20030;-65
2021/06/21 08:21:11;;;;;;;5.20;2.10;;;13.10;94.30;;;;;;5013732;28;20107;-72
2021/06/21 08:23:38;;;;;;;4.72;1.73;;;12.90;94.30;;;;;;5015862;28;20077;-68
2021/06/21 08:26:05;;;;;;;5.78;1.80;;;12.80;94.40;;;;;;5017420;28;20133;-62
2021/06/21 08:28:32;;;;;;;4.00;1.80;;;12.70;94.30;;;;;;5015192;28;20080;-66
2021/06/21 08:31:00;;;;;;;3.35;1.25;;;12.80;95.20;;;;;;5013166;28;20038;-67
2021/06/21 08:33:27;;;;;;;4.13;1.42;;;12.90;94.50;;;;;;5016627;28;20121;-61
2021/06/21 08:35:54;;;;;;;4.30;1.52;;;13.00;94.00;;;;;;5015355;28;20026;-67
2021/06/21 08:38:21;;;;;;;4.28;1.73;;;13.30;94.80;;;;;;5007333;28;20069;-71
2021/06/21 08:40:49;;;;;;;3.65;1.75;;;13.50;94.10;;;;;;5007743;28;20607;-66
2021/06/21 08:43:16;;;;;;;5.53;2.00;;;13.30;92.80;;;;;;5008509;28;20022;-65
2021/06/21 08:45:45;;;;;;;3.97;1.75;;;13.40;94.50;;;;;;5006927;28;20810;-67
2021/06/21 08:48:12;;;;;;;6.40;1.85;;;13.60;93.60;;;;;;5008038;28;20121;-71
2021/06/21 08:50:41;;;;;;;2.22;1.38;;;13.50;92.90;;;;;;5005408;28;20088;-65
2021/06/21 08:53:10;;;;;;;6.25;1.88;;;13.60;92.20;;;;;;4986902;28;20463;-74
2021/06/21 08:55:37;;;;;;;5.78;1.70;;;13.40;93.40;;;;;;5006051;28;20619;-63
2021/06/21 08:58:04;;;;;;;5.85;1.50;;;13.30;92.20;;;;;;5005913;28;20083;-64
2021/06/21 09:00:32;;;;;;;4.30;1.83;;;13.20;93.10;;;;;;5004550;28;20145;-70
2021/06/21 09:03:02;;;;;;;5.47;1.85;;;13.20;92.70;;;;;;5005656;28;20048;-62
2021/06/21 09:05:34;;;;;;;4.25;1.50;;;13.30;93.00;;;;;;5004492;28;20093;-75
2021/06/21 09:08:06;;;;;;;8.45;1.90;;;13.30;93.20;;;;;;5003089;28;20104;-66
2021/06/21 09:10:34;;;;;;;4.25;1.67;;;13.20;93.20;;;;;;4988544;28;20036;-63
2021/06/21 09:13:15;;;;;;;3.55;1.77;;;13.20;92.80;;;;;;5005298;28;20041;-74
2021/06/21 09:15:49;;;;;;;6.13;2.03;;;13.30;93.90;;;;;;5005288;28;20026;-62
2021/06/21 09:18:35;;;;;;;4.13;1.48;;;13.30;93.80;;;;;;5004784;28;20660;-67
2021/06/21 09:21:20;;;;;;;5.55;1.50;;;13.30;93.80;;;;;;5006249;28;20030;-69
2021/06/21 09:23:50;;;;;;;3.65;1.40;;;13.10;92.60;;;;;;5006259;28;20022;-63
2021/06/21 09:26:28;;;;;;;5.22;2.00;;;12.90;92.60;;;;;;5005753;28;20121;-68
2021/06/21 09:29:01;;;;;;;3.63;1.73;;;12.70;93.00;;;;;;5005436;28;20493;-69
2021/06/21 09:31:28;;;;;;;5.30;1.92;;;12.50;93.20;;;;;;5005567;28;20525;-69
2021/06/21 09:34:14;;;;;;;5.38;2.35;;;12.50;93.60;;;;;;5005905;28;20014;-67
2021/06/21 09:36:41;;;;;;;8.27;2.78;;;12.40;93.60;;;;;;5007002;28;20176;-68
2021/06/21 09:39:26;;;;;;;6.65;2.88;;;12.40;93.80;;;;;;5007158;28;20030;-68
2021/06/21 09:42:05;;;;;;;8.48;3.10;;;12.40;93.90;;;;;;5002635;28;20041;-68
2021/06/21 09:44:44;;;;;;;9.30;4.32;;;12.30;94.20;;;;;;5004858;28;20029;-68
2021/06/21 09:47:16;;;;;;;6.50;3.55;;;12.20;94.50;;;;;;5005624;28;20056;-67
2021/06/21 09:50:14;;;;;;;8.18;3.47;;;12.10;94.70;;;;;;5000471;28;20065;-68
2021/06/21 09:52:47;;;;;;;5.82;3.47;;;12.10;94.80;;;;;;5005403;28;20182;-69
2021/06/21 09:55:49;;;;;;;10.52;4.55;;;12.00;95.10;;;;;;5001544;28;20056;-69
2021/06/21 09:58:18;;;;;;;9.15;4.07;;;12.00;95.10;;;;;;5002016;28;20053;-70
2021/06/21 10:00:51;;;;;;;11.90;5.15;;;11.90;95.10;;;;;;5000913;28;20149;-68
2021/06/21 10:03:26;;;;;;;9.68;4.55;;;11.90;95.40;;;;;;5005251;28;20033;-69
2021/06/21 10:06:07;;;;;;;9.52;4.15;;;11.80;95.40;;;;;;5003643;28;20070;-66
2021/06/21 10:08:53;;;;;;;10.00;4.50;;;11.80;95.60;;;;;;5003543;28;20030;-72
2021/06/21 10:11:46;;;;;;;9.23;4.90;;;11.70;95.70;;;;;;5002142;28;20029;-67
2021/06/21 10:14:18;;;;;;;12.45;4.55;;;11.60;95.80;;;;;;4983702;28;20034;-70
2021/06/21 10:16:48;;;;;;;12.18;4.75;;;11.50;96.00;;;;;;5001614;28;20117;-66
2021/06/21 10:19:16;;;;;;;9.65;4.50;;;11.50;96.00;;;;;;5002264;28;20737;-66
2021/06/21 10:21:46;;;;;;;6.70;4.47;;;11.50;96.10;;;;;;5005032;28;20018;-67
2021/06/21 10:24:14;;;;;;;8.23;4.43;;;11.40;96.20;;;;;;5004750;28;20025;-67
2021/06/21 10:26:50;;;;;;;8.02;4.43;;;11.40;96.30;;;;;;5003781;28;20018;-65
2021/06/21 10:29:20;;;;;;;6.35;4.13;;;11.30;96.20;;;;;;5000781;28;20084;-67
2021/06/21 10:31:48;;;;;;;11.63;5.03;;;11.20;96.30;;;;;;4986984;28;20044;-66
2021/06/21 10:34:17;;;;;;;11.07;8.10;;;11.10;96.30;;;;;;5004911;28;20029;-68
2021/06/21 10:36:56;;;;;;;9.63;5.10;;;11.00;96.70;;;;;;5004821;28;20221;-67
2021/06/21 10:39:32;;;;;;;9.40;5.20;;;10.90;96.80;;;;;;5004002;28;20428;-69
2021/06/21 10:42:18;;;;;;;8.90;4.60;;;10.90;96.80;;;;;;5004487;28;20136;-67
2021/06/21 10:44:54;;;;;;;7.15;4.72;;;10.70;97.00;;;;;;5002542;28;20500;-68
2021/06/21 10:47:30;;;;;;;7.30;4.43;;;10.70;97.30;;;;;;4999417;28;20449;-67
2021/06/21 10:50:07;;;;;;;7.60;4.00;;;10.60;97.00;;;;;;5002468;28;20045;-69
2021/06/21 10:52:39;;;;;;;10.20;5.22;;;10.40;97.20;;;;;;5002408;28;20063;-70
2021/06/21 10:57:55;;;;;;;5.63;4.45;;;10.30;97.60;;;;;;4996919;28;20052;-68
2021/06/21 11:00:44;;;;;;;9.27;5.40;;;10.30;97.90;;;;;;5003676;28;20033;-70
2021/06/21 11:03:34;;;;;;;6.70;4.38;;;10.30;97.80;;;;;;5003998;28;20116;-69
2021/06/21 11:06:06;;;;;;;8.07;4.72;;;10.30;97.80;;;;;;5002995;28;20040;-68
2021/06/21 11:08:50;;;;;;;7.20;4.38;;;10.30;97.50;;;;;;4999374;28;20022;-68
2021/06/21 11:11:38;;;;;;;6.20;4.45;;;10.10;97.40;;;;;;5000686;28;20583;-68
2021/06/21 11:14:12;;;;;;;8.57;5.28;;;10.00;97.60;;;;;;5006627;28;20032;-69
2021/06/21 11:16:41;;;;;;;7.82;4.57;;;9.90;97.80;;;;;;5003249;28;20123;-66
2021/06/21 11:19:23;;;;;;;6.57;3.92;;;9.90;97.60;;;;;;5003801;28;20041;-67
2021/06/21 11:22:02;;;;;;;5.80;4.47;;;10.00;97.70;;;;;;5002361;28;20485;-67
2021/06/21 11:24:46;;;;;;;5.75;3.80;;;9.90;97.50;;;;;;4985055;28;20048;-68
2021/06/21 11:27:28;;;;;;;9.65;3.75;;;9.80;97.80;;;;;;4986309;28;20042;-67
2021/06/21 11:30:01;;;;;;;4.93;3.33;;;9.80;97.90;;;;;;5000071;28;20030;-66
2021/06/21 11:32:28;;;;;;;7.78;3.75;;;9.70;97.50;;;;;;5002962;28;20052;-69
2021/06/21 11:34:56;;;;;;;4.65;3.33;;;9.70;97.60;;;;;;5000134;28;20062;-68
2021/06/21 11:37:40;;;;;;;5.22;4.15;;;9.80;97.60;;;;;;5002602;28;20733;-68
2021/06/21 11:40:19;;;;;;;5.28;3.80;;;9.80;97.40;;;;;;5005823;28;20025;-68
2021/06/21 11:43:04;;;;;;;8.75;4.03;;;9.70;97.20;;;;;;5006497;28;20071;-68
2021/06/21 11:45:51;;;;;;;8.32;3.63;;;9.60;97.40;;;;;;5004652;28;20083;-66
2021/06/21 11:48:38;;;;;;;7.15;3.60;;;9.50;97.60;;;;;;5004982;28;20044;-68
2021/06/21 11:51:13;;;;;;;9.23;3.95;;;9.40;97.60;;;;;;5006745;28;20445;-67
2021/06/21 11:53:48;;;;;;;7.10;3.80;;;9.40;97.90;;;;;;5005349;28;20021;-66
2021/06/21 11:56:22;;;;;;;9.32;4.43;;;9.40;98.00;;;;;;5007034;28;20065;-68
2021/06/21 11:58:54;;;;;;;6.80;3.97;;;9.40;98.20;;;;;;5001407;28;20133;-68
